Time;durP1;ratioP1;P1;durP2;ratioP2;P2;SDS_P1;SDS_P2;PMS_P1;PMS_P2;Temp;Humidity;BMP_temperature;BMP_pressure;BME280_temperature;BME280_humidity;BME280_pressure;Samples;Min_cycle;Max_cycle;Signal;HPM_P1;HPM_P2
2023/08/16 00:00:28;;;;;;;13.23;2.25;;;20.40;99.90;;;;;;4070613;29;20052;-59
2023/08/16 00:02:31;;;;;;;6.43;2.28;;;20.40;99.80;;;;;;4070483;29;20096;-59
2023/08/16 00:04:34;;;;;;;5.90;2.30;;;20.40;99.80;;;;;;4070706;29;20048;-60
2023/08/16 00:06:41;;;;;;;9.05;3.33;;;20.40;99.70;;;;;;4070515;29;20451;-59
2023/08/16 00:08:43;;;;;;;13.65;5.28;;;20.40;99.70;;;;;;4069682;29;20056;-60
2023/08/16 00:10:45;;;;;;;9.70;4.35;;;20.50;99.60;;;;;;4069897;29;20455;-59
2023/08/16 00:12:48;;;;;;;10.75;4.45;;;20.50;99.60;;;;;;4070432;29;20079;-59
2023/08/16 00:14:50;;;;;;;8.52;4.63;;;20.40;99.70;;;;;;4070422;29;20499;-60
2023/08/16 00:16:52;;;;;;;11.48;4.53;;;20.40;99.70;;;;;;4070412;29;20072;-60
2023/08/16 00:18:54;;;;;;;10.93;4.03;;;20.50;99.90;;;;;;4068422;29;20066;-60
2023/08/16 00:20:59;;;;;;;10.95;4.43;;;20.50;99.90;;;;;;4070164;29;20402;-60
2023/08/16 00:23:01;;;;;;;11.65;4.55;;;20.60;99.70;;;;;;4070246;29;20064;-59
2023/08/16 00:25:04;;;;;;;13.60;5.50;;;20.50;99.70;;;;;;4070128;29;20058;-57
2023/08/16 00:27:08;;;;;;;;;;;20.50;99.50;;;;;;4070766;29;20557;-60
2023/08/16 00:29:10;;;;;;;10.02;5.60;;;20.50;99.60;;;;;;4069681;29;20030;-57
2023/08/16 00:31:12;;;;;;;13.90;6.00;;;20.40;99.60;;;;;;4068733;29;20063;-60
2023/08/16 00:33:14;;;;;;;9.82;5.03;;;20.40;99.90;;;;;;4070463;29;20048;-59
2023/08/16 00:35:16;;;;;;;11.85;4.80;;;20.50;99.60;;;;;;4070336;29;20118;-59
2023/08/16 00:37:20;;;;;;;9.48;4.53;;;20.50;99.50;;;;;;4070189;29;20063;-59
2023/08/16 00:39:22;;;;;;;8.40;3.60;;;20.50;99.40;;;;;;4069569;29;20107;-59
2023/08/16 00:41:24;;;;;;;6.60;3.00;;;20.50;99.40;;;;;;4069041;29;20044;-59
2023/08/16 00:43:26;;;;;;;8.27;3.22;;;20.40;99.30;;;;;;4070025;29;20055;-60
2023/08/16 00:45:29;;;;;;;6.40;2.20;;;20.40;99.40;;;;;;4069768;29;20055;-59
2023/08/16 00:47:31;;;;;;;7.70;2.53;;;20.30;99.40;;;;;;4069836;29;20533;-59
2023/08/16 00:49:33;;;;;;;6.60;2.03;;;20.30;99.40;;;;;;4069083;29;20044;-58
2023/08/16 00:51:36;;;;;;;7.45;2.10;;;20.40;99.30;;;;;;4069867;29;20056;-59
2023/08/16 00:53:42;;;;;;;7.55;1.90;;;20.30;99.40;;;;;;4069791;29;20080;-59
2023/08/16 00:55:44;;;;;;;7.95;1.95;;;20.30;99.50;;;;;;4069451;29;20052;-59
2023/08/16 00:57:47;;;;;;;8.48;1.98;;;20.20;99.50;;;;;;4068423;29;20048;-59
2023/08/16 00:59:49;;;;;;;6.10;1.90;;;20.20;99.50;;;;;;4067852;29;20530;-59
2023/08/16 01:01:51;;;;;;;6.53;1.70;;;20.30;99.50;;;;;;4069880;29;20058;-59
2023/08/16 01:03:54;;;;;;;5.32;1.75;;;20.20;99.40;;;;;;4068541;29;20048;-58
2023/08/16 01:05:57;;;;;;;4.85;2.00;;;20.20;99.40;;;;;;4069717;29;20081;-59
2023/08/16 01:07:59;;;;;;;5.82;1.83;;;20.10;99.60;;;;;;4069728;29;20060;-59
2023/08/16 01:10:03;;;;;;;7.22;1.75;;;20.10;99.60;;;;;;4068520;29;20044;-58
2023/08/16 01:12:10;;;;;;;9.00;2.15;;;20.00;99.60;;;;;;4067967;29;20501;-59
2023/08/16 01:14:20;;;;;;;5.15;1.95;;;20.00;99.60;;;;;;4069358;29;20055;-58
2023/08/16 01:16:23;;;;;;;7.68;1.85;;;20.00;99.60;;;;;;4084193;29;20059;-59
2023/08/16 01:18:28;;;;;;;6.10;1.60;;;20.00;99.60;;;;;;4069362;29;20056;-60
2023/08/16 01:20:31;;;;;;;4.65;1.80;;;20.00;99.50;;;;;;4069126;29;20068;-59
2023/08/16 01:22:42;;;;;;;6.78;1.58;;;20.00;99.10;;;;;;4069445;29;20074;-59
2023/08/16 01:24:57;;;;;;;5.20;1.80;;;20.00;99.00;;;;;;4069050;29;20071;-59
2023/08/16 01:27:01;;;;;;;14.50;2.03;;;20.00;99.20;;;;;;4068090;29;20058;-59
2023/08/16 01:29:05;;;;;;;5.30;2.30;;;20.00;99.30;;;;;;4068500;29;20048;-61
2023/08/16 01:31:08;;;;;;;3.90;1.35;;;19.90;99.00;;;;;;4069210;29;20059;-60
2023/08/16 01:33:12;;;;;;;8.50;1.77;;;19.90;99.10;;;;;;4068046;29;20055;-59
2023/08/16 01:35:14;;;;;;;4.10;1.40;;;19.80;99.10;;;;;;4069287;29;20521;-59
2023/08/16 01:37:16;;;;;;;5.93;1.83;;;19.80;99.10;;;;;;4069040;29;20052;-59
2023/08/16 01:39:19;;;;;;;5.00;1.58;;;19.70;99.10;;;;;;4068431;29;20059;-57
2023/08/16 01:41:27;;;;;;;4.47;1.58;;;19.70;99.20;;;;;;4069583;29;20048;-60
2023/08/16 01:43:32;;;;;;;7.55;1.50;;;19.70;99.20;;;;;;4069890;29;20052;-58
2023/08/16 01:45:34;;;;;;;5.15;1.60;;;19.70;99.40;;;;;;4069571;29;20123;-58
2023/08/16 01:47:37;;;;;;;4.10;1.40;;;19.70;99.10;;;;;;4069635;29;20079;-58
2023/08/16 01:49:40;;;;;;;3.58;1.23;;;19.70;99.00;;;;;;4068877;29;20048;-58
2023/08/16 01:51:43;;;;;;;3.92;1.50;;;19.70;99.00;;;;;;4069492;29;20048;-58
2023/08/16 01:53:52;;;;;;;3.35;1.13;;;19.70;99.00;;;;;;4068885;29;20051;-58
2023/08/16 01:55:54;;;;;;;7.13;1.63;;;19.70;98.90;;;;;;4068999;29;20055;-58
2023/08/16 01:57:56;;;;;;;7.38;1.75;;;19.80;98.70;;;;;;4068964;29;20060;-57
2023/08/16 02:00:00;;;;;;;3.22;1.40;;;19.90;98.50;;;;;;4068118;29;20044;-57
2023/08/16 02:02:02;;;;;;;4.72;1.70;;;19.90;98.40;;;;;;4069122;29;20410;-57
2023/08/16 02:04:04;;;;;;;4.07;1.33;;;20.00;98.30;;;;;;4068949;29;20052;-57
2023/08/16 02:06:06;;;;;;;2.08;1.20;;;19.90;98.10;;;;;;4068452;29;20055;-56
2023/08/16 02:08:10;;;;;;;5.95;1.67;;;19.90;98.10;;;;;;4068444;29;20059;-57
2023/08/16 02:10:12;;;;;;;5.30;1.73;;;19.90;98.00;;;;;;4068003;29;20048;-57
2023/08/16 02:12:14;;;;;;;3.80;1.23;;;19.90;97.90;;;;;;4068443;29;20056;-57
2023/08/16 02:14:16;;;;;;;5.03;1.50;;;20.00;98.00;;;;;;4068635;29;20096;-57
2023/08/16 02:16:20;;;;;;;3.08;1.45;;;20.00;97.90;;;;;;4068307;29;20052;-57
2023/08/16 02:18:22;;;;;;;3.75;1.20;;;20.10;97.90;;;;;;4068557;29;20332;-57
2023/08/16 02:20:24;;;;;;;4.40;1.42;;;20.10;98.10;;;;;;4068034;29;20473;-57
2023/08/16 02:22:26;;;;;;;2.17;1.17;;;20.10;98.20;;;;;;4067056;29;20483;-57
2023/08/16 02:24:43;;;;;;;4.43;1.35;;;20.10;98.50;;;;;;4068700;29;20056;-57
2023/08/16 02:26:45;;;;;;;3.53;1.45;;;20.10;98.40;;;;;;4068639;29;20071;-57
2023/08/16 02:28:48;;;;;;;5.70;1.50;;;20.10;98.40;;;;;;4068351;29;20048;-57
2023/08/16 02:30:50;;;;;;;3.17;1.30;;;20.10;98.40;;;;;;4068341;29;20423;-57
2023/08/16 02:32:54;;;;;;;5.40;1.20;;;20.10;98.30;;;;;;4068359;29;20051;-56
2023/08/16 02:34:56;;;;;;;3.83;1.63;;;20.10;98.50;;;;;;4068430;29;20482;-56
2023/08/16 02:36:58;;;;;;;7.03;1.50;;;20.10;98.60;;;;;;4068342;29;20139;-56
2023/08/16 02:39:01;;;;;;;4.00;1.23;;;20.00;98.50;;;;;;4067897;29;20052;-56
2023/08/16 02:41:03;;;;;;;7.57;1.75;;;20.10;98.40;;;;;;4068477;29;20127;-57
2023/08/16 02:43:06;;;;;;;5.63;1.77;;;20.10;98.40;;;;;;4067058;29;20080;-56
2023/08/16 02:45:08;;;;;;;4.18;1.40;;;20.10;98.40;;;;;;4068289;29;20044;-56
2023/08/16 02:47:10;;;;;;;5.30;1.40;;;20.10;98.50;;;;;;4068522;29;20058;-57
2023/08/16 02:49:14;;;;;;;6.25;1.95;;;20.00;98.40;;;;;;4067721;29;20083;-57
2023/08/16 02:51:16;;;;;;;4.50;1.63;;;20.10;98.40;;;;;;4068102;29;20196;-57
2023/08/16 02:53:18;;;;;;;7.38;1.70;;;20.00;98.30;;;;;;4068513;29;20135;-56
2023/08/16 02:55:20;;;;;;;6.38;1.45;;;20.00;98.20;;;;;;4068399;29;20497;-57
2023/08/16 02:57:22;;;;;;;3.95;1.13;;;20.00;98.20;;;;;;4068351;29;20058;-57
2023/08/16 02:59:24;;;;;;;3.15;1.13;;;20.00;98.20;;;;;;4067871;29;20048;-57
2023/08/16 03:01:26;;;;;;;5.03;1.50;;;20.00;98.20;;;;;;4068168;29;20487;-58
2023/08/16 03:03:28;;;;;;;4.72;1.55;;;20.00;98.30;;;;;;4068458;29;20074;-57
2023/08/16 03:05:32;;;;;;;4.18;1.98;;;20.00;98.20;;;;;;4067848;29;20131;-57
2023/08/16 03:07:34;;;;;;;8.13;1.98;;;19.90;98.20;;;;;;4068168;29;20060;-56
2023/08/16 03:09:36;;;;;;;9.18;2.47;;;19.90;98.20;;;;;;4082285;29;20058;-57
2023/08/16 03:11:38;;;;;;;5.90;2.72;;;20.00;98.30;;;;;;4068239;29;20055;-57
2023/08/16 03:13:40;;;;;;;6.88;3.13;;;19.90;98.20;;;;;;4068409;29;20056;-56
2023/08/16 03:15:42;;;;;;;11.13;2.92;;;19.90;98.20;;;;;;4068138;29;20131;-57
2023/08/16 03:17:45;;;;;;;7.55;2.10;;;19.90;98.20;;;;;;4068706;29;20479;-57
2023/08/16 03:19:47;;;;;;;9.20;2.33;;;19.90;98.10;;;;;;4067745;29;20044;-58
2023/08/16 03:21:50;;;;;;;6.15;2.03;;;19.90;98.10;;;;;;4068100;29;20063;-57
2023/08/16 03:23:52;;;;;;;6.85;2.03;;;19.90;98.00;;;;;;4068309;29;20447;-57
2023/08/16 03:25:54;;;;;;;6.45;1.60;;;19.80;98.10;;;;;;4068337;29;20058;-57
2023/08/16 03:27:57;;;;;;;5.13;1.48;;;19.80;98.10;;;;;;4070110;29;20048;-60
2023/08/16 03:29:59;;;;;;;4.63;1.50;;;19.80;98.20;;;;;;4070346;29;20127;-57
2023/08/16 03:32:01;;;;;;;3.42;1.30;;;19.70;98.10;;;;;;4070890;29;20055;-59
2023/08/16 03:34:03;;;;;;;4.10;1.40;;;19.80;98.10;;;;;;4069842;29;20048;-58
2023/08/16 03:36:06;;;;;;;5.30;1.60;;;19.90;98.00;;;;;;4071141;29;20091;-57
2023/08/16 03:38:09;;;;;;;5.82;1.25;;;19.90;97.90;;;;;;4071161;29;20459;-57
2023/08/16 03:40:13;;;;;;;4.60;1.15;;;19.80;97.80;;;;;;4070442;29;20052;-57
2023/08/16 03:42:15;;;;;;;6.55;1.45;;;19.90;97.70;;;;;;4071390;29;20052;-64
2023/08/16 03:44:17;;;;;;;3.67;1.20;;;19.80;97.70;;;;;;4070994;29;20405;-59
2023/08/16 03:46:19;;;;;;;3.88;1.05;;;19.80;97.80;;;;;;4071046;29;20127;-59
2023/08/16 03:48:23;;;;;;;4.03;1.45;;;19.90;97.80;;;;;;4070637;29;20400;-59
2023/08/16 03:50:25;;;;;;;5.50;1.65;;;19.90;97.80;;;;;;4070770;29;20082;-57
2023/08/16 03:52:27;;;;;;;3.55;1.35;;;19.90;97.70;;;;;;4070109;29;20400;-57
2023/08/16 03:54:30;;;;;;;3.88;1.33;;;19.80;97.70;;;;;;4071539;29;20044;-59
2023/08/16 03:56:33;;;;;;;3.55;1.42;;;19.80;97.60;;;;;;4071247;29;20074;-57
2023/08/16 03:58:35;;;;;;;6.30;1.48;;;19.80;97.50;;;;;;4071507;29;20052;-61
2023/08/16 04:00:37;;;;;;;4.88;1.40;;;19.80;97.50;;;;;;4071119;29;20048;-58
2023/08/16 04:02:40;;;;;;;4.82;1.25;;;19.80;97.50;;;;;;4071135;29;20056;-58
2023/08/16 04:04:42;;;;;;;3.65;1.60;;;19.80;97.20;;;;;;4071346;29;20052;-59
2023/08/16 04:06:44;;;;;;;5.65;1.15;;;19.80;97.30;;;;;;4070545;29;20499;-58
2023/08/16 04:08:46;;;;;;;4.68;1.23;;;19.70;97.30;;;;;;4070670;29;20387;-57
2023/08/16 04:10:49;;;;;;;3.20;1.20;;;19.70;97.50;;;;;;4069872;29;20059;-56
2023/08/16 04:12:52;;;;;;;3.45;1.25;;;19.80;97.40;;;;;;4070176;29;20060;-57
2023/08/16 04:14:54;;;;;;;4.80;1.40;;;19.80;97.40;;;;;;4070680;29;20134;-56
2023/08/16 04:16:56;;;;;;;4.18;1.35;;;19.80;97.20;;;;;;4070713;29;20048;-57
2023/08/16 04:18:58;;;;;;;5.07;1.40;;;19.80;97.30;;;;;;4069984;29;20052;-59
2023/08/16 04:20:59;;;;;;;7.03;1.50;;;19.80;97.40;;;;;;4070888;29;20062;-59
2023/08/16 04:23:02;;;;;;;2.63;1.20;;;19.80;97.70;;;;;;4071670;29;20139;-57
2023/08/16 04:25:05;;;;;;;3.08;1.30;;;19.80;98.00;;;;;;4070018;29;20056;-60
2023/08/16 04:27:09;;;;;;;3.08;1.23;;;19.80;98.00;;;;;;4070236;29;20123;-59
2023/08/16 04:29:11;;;;;;;5.65;1.23;;;19.80;98.10;;;;;;4070219;29;20427;-59
2023/08/16 04:31:13;;;;;;;5.07;1.52;;;19.80;98.10;;;;;;4069955;29;20052;-59
2023/08/16 04:33:15;;;;;;;4.05;1.30;;;19.80;97.90;;;;;;4069638;29;20048;-59
2023/08/16 04:35:17;;;;;;;4.90;1.50;;;19.70;98.00;;;;;;4070112;29;20447;-59
2023/08/16 04:37:19;;;;;;;3.53;1.30;;;19.70;98.10;;;;;;4070371;29;20807;-59
2023/08/16 04:39:22;;;;;;;5.07;1.83;;;19.70;98.00;;;;;;4069462;29;20148;-59
2023/08/16 04:41:24;;;;;;;4.57;1.60;;;19.70;97.90;;;;;;4070062;29;20392;-59
2023/08/16 04:43:28;;;;;;;5.13;1.73;;;19.70;97.90;;;;;;4070022;29;20059;-60
2023/08/16 04:45:30;;;;;;;4.32;1.30;;;19.70;98.10;;;;;;4069821;29;20099;-59
2023/08/16 04:47:32;;;;;;;3.65;1.52;;;19.70;98.30;;;;;;4069458;29;20430;-59
2023/08/16 04:49:34;;;;;;;4.05;1.40;;;19.70;98.10;;;;;;4069225;29;20055;-59
2023/08/16 04:51:36;;;;;;;4.15;1.38;;;19.70;98.10;;;;;;4068486;29;20123;-59
2023/08/16 04:53:38;;;;;;;6.85;1.85;;;19.60;97.70;;;;;;4070195;29;20405;-59
2023/08/16 04:55:40;;;;;;;5.97;1.70;;;19.60;97.80;;;;;;4069833;29;20079;-61
2023/08/16 04:57:43;;;;;;;7.78;1.52;;;19.60;97.80;;;;;;4069990;29;20103;-57
2023/08/16 04:59:46;;;;;;;3.58;1.38;;;19.60;97.90;;;;;;4069343;29;20048;-57
2023/08/16 05:01:48;;;;;;;4.30;1.10;;;19.50;98.00;;;;;;4069384;29;20501;-56
2023/08/16 05:03:51;;;;;;;5.35;1.30;;;19.50;98.00;;;;;;4069838;29;20458;-59
2023/08/16 05:06:00;;;;;;;4.15;1.27;;;19.50;98.00;;;;;;4069835;29;20054;-59
2023/08/16 05:08:03;;;;;;;5.22;1.70;;;19.60;98.10;;;;;;4069651;29;20537;-60
2023/08/16 05:10:06;;;;;;;5.45;1.30;;;19.50;98.30;;;;;;4069410;29;20095;-60
2023/08/16 05:12:08;;;;;;;3.33;1.40;;;19.50;98.20;;;;;;4069631;29;20083;-59
2023/08/16 05:14:10;;;;;;;2.63;1.27;;;19.50;98.20;;;;;;4069811;29;20055;-59
2023/08/16 05:16:13;;;;;;;3.80;1.20;;;19.50;98.10;;;;;;4069294;29;20106;-61
2023/08/16 05:18:16;;;;;;;4.97;1.35;;;19.50;98.20;;;;;;4069764;29;20048;-60
2023/08/16 05:20:18;;;;;;;6.60;1.52;;;19.50;98.00;;;;;;4069039;29;20059;-59
2023/08/16 05:22:22;;;;;;;5.20;1.23;;;19.50;97.90;;;;;;4068886;29;20048;-60
2023/08/16 05:24:24;;;;;;;5.65;1.33;;;19.50;97.90;;;;;;4069827;29;20514;-57
2023/08/16 05:26:26;;;;;;;4.50;1.40;;;19.50;97.90;;;;;;4069595;29;20119;-56
2023/08/16 05:28:28;;;;;;;3.28;1.45;;;19.50;97.80;;;;;;4069626;29;20078;-57
2023/08/16 05:30:30;;;;;;;5.22;1.73;;;19.50;97.90;;;;;;4068557;29;20085;-62
2023/08/16 05:32:34;;;;;;;8.77;1.45;;;19.50;97.80;;;;;;4069201;29;20084;-57
2023/08/16 05:34:36;;;;;;;8.70;1.90;;;19.50;97.90;;;;;;4069412;29;20063;-57
2023/08/16 05:36:45;;;;;;;11.55;1.88;;;19.40;97.90;;;;;;4069029;29;20052;-59
2023/08/16 05:38:47;;;;;;;5.78;1.30;;;19.50;97.90;;;;;;4069071;29;20068;-59
2023/08/16 05:40:49;;;;;;;6.13;1.60;;;19.50;97.90;;;;;;4068582;29;20044;-60
2023/08/16 05:42:51;;;;;;;10.18;1.70;;;19.50;97.90;;;;;;4069071;29;20486;-59
2023/08/16 05:44:53;;;;;;;4.90;1.65;;;19.50;97.70;;;;;;4068782;29;20127;-59
2023/08/16 05:46:55;;;;;;;4.97;1.33;;;19.50;97.90;;;;;;4068964;29;20104;-58
2023/08/16 05:49:02;;;;;;;6.63;2.10;;;19.50;98.00;;;;;;4069073;29;20059;-57
2023/08/16 05:51:04;;;;;;;9.40;1.83;;;19.60;97.90;;;;;;4067827;29;20048;-59
2023/08/16 05:53:06;;;;;;;4.43;1.55;;;19.60;98.00;;;;;;4069080;29;20062;-58
2023/08/16 05:55:08;;;;;;;10.73;1.80;;;19.60;98.00;;;;;;4069106;29;20071;-59
2023/08/16 05:57:10;;;;;;;10.25;1.58;;;19.60;98.00;;;;;;4068806;29;20138;-59
2023/08/16 05:59:12;;;;;;;10.23;1.77;;;19.70;98.00;;;;;;4068437;29;20086;-59
2023/08/16 06:01:14;;;;;;;6.82;1.80;;;19.70;98.00;;;;;;4068321;29;20056;-57
2023/08/16 06:03:17;;;;;;;6.30;1.70;;;19.70;98.00;;;;;;4068952;29;20052;-56
2023/08/16 06:05:20;;;;;;;7.97;1.77;;;19.70;98.00;;;;;;4068700;29;20392;-57
2023/08/16 06:07:22;;;;;;;9.52;1.77;;;19.70;98.10;;;;;;4068990;29;20086;-56
2023/08/16 06:09:25;;;;;;;7.60;1.77;;;19.80;98.00;;;;;;4068742;29;20387;-57
2023/08/16 06:11:27;;;;;;;11.95;1.83;;;19.80;98.00;;;;;;4067966;29;20060;-57
2023/08/16 06:13:29;;;;;;;6.15;1.65;;;19.80;98.10;;;;;;4068476;29;20055;-57
2023/08/16 06:15:31;;;;;;;6.65;1.67;;;19.90;98.00;;;;;;4068491;29;20048;-58
2023/08/16 06:17:33;;;;;;;7.25;1.70;;;19.90;97.90;;;;;;4068587;29;20430;-60
2023/08/16 06:19:35;;;;;;;6.60;1.88;;;20.00;97.90;;;;;;4068225;29;20089;-57
2023/08/16 06:21:39;;;;;;;9.02;1.85;;;19.90;98.00;;;;;;4068747;29;20448;-59
2023/08/16 06:23:42;;;;;;;3.35;1.63;;;20.00;98.10;;;;;;4068626;29;20052;-57
2023/08/16 06:25:44;;;;;;;8.38;2.80;;;20.10;98.20;;;;;;4068463;29;20054;-60
2023/08/16 06:27:46;;;;;;;8.68;2.05;;;20.10;98.00;;;;;;4068204;29;20058;-58
2023/08/16 06:29:48;;;;;;;7.40;1.95;;;20.20;98.00;;;;;;4068215;29;20207;-59
2023/08/16 06:31:50;;;;;;;6.60;2.20;;;20.10;98.00;;;;;;4068379;29;20055;-59
2023/08/16 06:33:52;;;;;;;4.90;1.77;;;20.20;97.90;;;;;;4068525;29;20060;-59
2023/08/16 06:35:54;;;;;;;4.72;1.85;;;20.20;98.00;;;;;;4068548;29;20495;-59
2023/08/16 06:37:58;;;;;;;11.75;2.63;;;20.30;98.10;;;;;;4068684;29;20509;-59
2023/08/16 06:40:00;;;;;;;7.22;1.90;;;20.20;98.00;;;;;;4067845;29;20616;-60
2023/08/16 06:42:03;;;;;;;9.65;2.40;;;20.20;98.50;;;;;;4068135;29;20084;-59
2023/08/16 06:44:05;;;;;;;11.85;2.88;;;20.20;98.00;;;;;;4068145;29;20040;-59
2023/08/16 06:46:07;;;;;;;8.07;2.75;;;20.20;98.00;;;;;;4068313;29;20339;-59
2023/08/16 06:48:09;;;;;;;13.20;2.67;;;20.20;98.00;;;;;;4068375;29;20127;-59
2023/08/16 06:50:12;;;;;;;3.67;1.65;;;20.30;97.90;;;;;;4067950;29;20127;-59
2023/08/16 06:52:14;;;;;;;7.57;2.35;;;20.40;98.00;;;;;;4068236;29;20095;-57
2023/08/16 06:54:17;;;;;;;15.15;2.85;;;20.40;97.90;;;;;;4068396;29;20063;-59
2023/08/16 06:56:19;;;;;;;9.82;2.30;;;20.50;97.90;;;;;;4068039;29;20059;-57
2023/08/16 06:58:21;;;;;;;6.80;2.10;;;20.40;97.90;;;;;;4067844;29;20050;-57
2023/08/16 07:00:23;;;;;;;10.60;2.45;;;20.50;97.90;;;;;;4067496;29;20117;-57
2023/08/16 07:02:25;;;;;;;10.32;2.70;;;20.60;97.90;;;;;;4071105;29;20463;-56
2023/08/16 07:04:33;;;;;;;10.32;2.25;;;20.60;98.00;;;;;;4071333;29;20052;-57
2023/08/16 07:06:35;;;;;;;11.70;2.55;;;20.60;98.00;;;;;;4071518;29;20056;-57
2023/08/16 07:08:37;;;;;;;4.90;1.73;;;20.70;97.80;;;;;;4071584;29;20055;-57
2023/08/16 07:10:42;;;;;;;7.72;2.33;;;20.80;97.80;;;;;;4070608;29;20044;-57
2023/08/16 07:12:46;;;;;;;9.45;2.30;;;20.90;97.80;;;;;;4070762;29;20064;-56
2023/08/16 07:14:49;;;;;;;8.02;2.70;;;21.00;97.50;;;;;;4071136;29;20100;-57
2023/08/16 07:16:51;;;;;;;13.10;2.65;;;20.90;97.50;;;;;;4071255;29;20044;-57
2023/08/16 07:18:53;;;;;;;9.85;2.70;;;21.00;97.70;;;;;;4071361;29;20247;-57
2023/08/16 07:20:55;;;;;;;9.23;2.88;;;21.00;97.60;;;;;;4070461;29;20044;-58
2023/08/16 07:22:58;;;;;;;7.53;2.22;;;21.00;97.80;;;;;;4071055;29;20040;-57
2023/08/16 07:25:00;;;;;;;8.38;2.20;;;21.10;97.70;;;;;;4071243;29;20052;-57
2023/08/16 07:27:05;;;;;;;6.30;1.83;;;21.20;97.70;;;;;;4070663;29;20051;-57
2023/08/16 07:29:07;;;;;;;12.30;2.65;;;21.20;97.80;;;;;;4071009;29;20048;-57
2023/08/16 07:31:09;;;;;;;17.00;3.15;;;21.20;97.70;;;;;;4070200;29;20123;-57
2023/08/16 07:33:12;;;;;;;10.35;2.42;;;21.30;97.60;;;;;;4070824;29;20055;-57
2023/08/16 07:35:14;;;;;;;8.63;2.78;;;21.40;97.60;;;;;;4071026;29;20127;-57
2023/08/16 07:37:17;;;;;;;12.07;2.67;;;21.50;97.50;;;;;;4071078;29;20052;-57
2023/08/16 07:39:19;;;;;;;8.63;2.85;;;21.40;97.70;;;;;;4070744;29;20422;-57
2023/08/16 07:41:21;;;;;;;10.00;2.97;;;21.40;97.40;;;;;;4069955;29;20083;-59
2023/08/16 07:43:25;;;;;;;12.57;2.65;;;21.40;97.60;;;;;;4069828;29;20131;-59
2023/08/16 07:45:27;;;;;;;10.77;2.40;;;21.50;97.60;;;;;;4071015;29;20048;-59
2023/08/16 07:47:29;;;;;;;16.52;2.72;;;21.60;97.50;;;;;;4070791;29;20116;-59
2023/08/16 07:49:31;;;;;;;12.02;2.63;;;21.60;97.50;;;;;;4070762;29;20206;-59
2023/08/16 07:51:33;;;;;;;14.82;2.75;;;21.60;97.60;;;;;;4070248;29;20059;-58
2023/08/16 07:53:35;;;;;;;14.65;3.63;;;21.70;97.60;;;;;;4070613;29;20044;-59
2023/08/16 07:55:37;;;;;;;8.82;2.72;;;21.80;97.60;;;;;;4070431;29;20076;-59
2023/08/16 07:57:39;;;;;;;13.13;2.83;;;21.90;97.30;;;;;;4070564;29;20052;-59
2023/08/16 07:59:43;;;;;;;8.88;2.67;;;22.00;97.20;;;;;;4070771;29;20052;-59
2023/08/16 08:01:45;;;;;;;12.65;3.22;;;22.20;97.10;;;;;;4069802;29;20123;-59
2023/08/16 08:03:47;;;;;;;18.67;3.70;;;22.20;97.10;;;;;;4070559;29;20529;-58
2023/08/16 08:05:49;;;;;;;10.60;2.72;;;22.30;96.90;;;;;;4070431;29;20071;-59
2023/08/16 08:07:53;;;;;;;8.98;3.17;;;22.30;96.80;;;;;;4070543;29;20055;-59
2023/08/16 08:09:57;;;;;;;8.20;2.47;;;22.30;96.80;;;;;;4070110;29;20078;-59
2023/08/16 08:11:59;;;;;;;8.88;2.97;;;22.20;96.80;;;;;;4070129;29;20414;-59
2023/08/16 08:14:02;;;;;;;10.05;2.60;;;22.20;96.80;;;;;;4068426;29;20056;-59
2023/08/16 08:16:06;;;;;;;10.45;3.08;;;22.20;97.10;;;;;;4070499;29;20056;-59
2023/08/16 08:18:08;;;;;;;8.77;3.10;;;22.20;96.90;;;;;;4070721;29;20469;-59
2023/08/16 08:20:14;;;;;;;6.82;2.50;;;22.30;96.90;;;;;;4069768;29;20078;-59
2023/08/16 08:22:16;;;;;;;9.48;3.13;;;22.40;97.10;;;;;;4070474;29;20406;-59
2023/08/16 08:24:18;;;;;;;14.50;3.60;;;22.40;96.80;;;;;;4069714;29;20082;-59
2023/08/16 08:26:20;;;;;;;8.40;2.40;;;22.40;97.20;;;;;;4068912;29;20074;-59
2023/08/16 08:28:22;;;;;;;7.05;2.67;;;22.50;97.10;;;;;;4070213;29;20104;-59
2023/08/16 08:30:24;;;;;;;9.75;2.80;;;22.60;97.00;;;;;;4069935;29;20156;-58
2023/08/16 08:32:28;;;;;;;7.20;2.60;;;22.60;96.70;;;;;;4070337;29;20044;-62
2023/08/16 08:34:30;;;;;;;8.77;2.72;;;22.70;96.90;;;;;;4070306;29;20247;-59
2023/08/16 08:36:32;;;;;;;6.47;2.50;;;22.70;96.80;;;;;;4069236;29;20062;-59
2023/08/16 08:38:35;;;;;;;7.25;2.63;;;22.80;96.60;;;;;;4070003;29;20111;-59
2023/08/16 08:40:37;;;;;;;12.35;2.67;;;22.80;96.60;;;;;;4069688;29;20497;-59
2023/08/16 08:42:41;;;;;;;9.07;2.53;;;22.90;96.60;;;;;;4070367;29;20082;-59
2023/08/16 08:44:43;;;;;;;8.35;2.53;;;23.00;96.50;;;;;;4070022;29;20106;-59
2023/08/16 08:46:47;;;;;;;6.78;2.65;;;23.00;96.60;;;;;;4069839;29;20050;-59
2023/08/16 08:48:50;;;;;;;9.57;2.80;;;23.10;96.50;;;;;;4070038;29;20055;-59
2023/08/16 08:50:53;;;;;;;8.18;2.45;;;23.10;96.50;;;;;;4069428;29;20095;-57
2023/08/16 08:52:56;;;;;;;14.77;2.60;;;23.10;96.60;;;;;;4069441;29;20482;-59
2023/08/16 08:54:59;;;;;;;12.50;2.72;;;23.10;96.40;;;;;;4069732;29;20048;-58
2023/08/16 08:57:02;;;;;;;8.80;2.50;;;23.00;96.50;;;;;;4070148;29;20127;-59
2023/08/16 08:59:06;;;;;;;10.02;2.25;;;23.00;96.40;;;;;;4069608;29;20078;-59
2023/08/16 09:01:17;;;;;;;13.05;2.65;;;23.00;96.70;;;;;;4069052;29;20052;-59
2023/08/16 09:03:24;;;;;;;13.93;3.35;;;23.10;96.50;;;;;;4069901;29;20522;-57
2023/08/16 09:05:28;;;;;;;10.05;2.72;;;23.20;96.60;;;;;;4069517;29;20052;-56
2023/08/16 09:07:32;;;;;;;8.93;2.45;;;23.30;96.50;;;;;;4069206;29;20044;-57
2023/08/16 09:09:35;;;;;;;9.85;2.35;;;23.40;96.40;;;;;;4069881;29;20052;-57
2023/08/16 09:11:37;;;;;;;6.65;2.47;;;23.40;96.50;;;;;;4068880;29;20139;-57
2023/08/16 09:13:39;;;;;;;8.50;2.70;;;23.50;96.20;;;;;;4069499;29;20487;-56
2023/08/16 09:15:41;;;;;;;8.45;2.38;;;23.60;96.10;;;;;;4069197;29;20048;-57
2023/08/16 09:17:45;;;;;;;7.80;2.45;;;23.60;96.10;;;;;;4069697;29;20052;-56
2023/08/16 09:19:47;;;;;;;9.15;2.90;;;23.60;96.00;;;;;;4069481;29;20072;-56
2023/08/16 09:21:51;;;;;;;7.68;2.35;;;23.60;95.90;;;;;;4068231;29;20044;-57
2023/08/16 09:23:58;;;;;;;14.57;2.38;;;23.60;96.00;;;;;;4069485;29;20054;-56
2023/08/16 09:26:00;;;;;;;5.75;2.10;;;23.70;95.80;;;;;;4068706;29;20052;-60
2023/08/16 09:28:02;;;;;;;5.47;2.05;;;23.70;95.80;;;;;;4069313;29;20128;-56
2023/08/16 09:30:06;;;;;;;11.90;3.15;;;23.70;95.80;;;;;;4084129;29;20159;-66
2023/08/16 09:32:08;;;;;;;6.57;2.28;;;23.80;95.70;;;;;;4068988;29;20048;-57
2023/08/16 09:34:20;;;;;;;7.53;2.25;;;23.90;95.70;;;;;;4069369;29;20387;-57
2023/08/16 09:36:36;;;;;;;8.70;2.53;;;23.90;95.50;;;;;;4068755;29;20502;-57
2023/08/16 09:38:41;;;;;;;8.00;2.00;;;23.90;95.20;;;;;;4069303;29;20451;-57
2023/08/16 09:40:50;;;;;;;6.95;1.95;;;23.90;95.30;;;;;;4068520;29;20108;-57
2023/08/16 09:42:57;;;;;;;7.07;2.08;;;24.00;94.90;;;;;;4069234;29;20055;-57
2023/08/16 09:44:59;;;;;;;17.42;3.45;;;24.00;95.00;;;;;;4069244;29;20487;-59
2023/08/16 09:47:12;;;;;;;5.55;2.15;;;24.10;95.00;;;;;;4069140;29;20479;-59
2023/08/16 09:49:15;;;;;;;7.35;2.05;;;24.20;95.00;;;;;;4069111;29;20427;-59
2023/08/16 09:51:17;;;;;;;5.38;2.40;;;24.20;95.10;;;;;;4066807;29;20531;-59
2023/08/16 09:53:20;;;;;;;6.80;2.13;;;24.30;94.50;;;;;;4068934;29;20075;-58
2023/08/16 09:55:42;;;;;;;6.10;2.63;;;24.40;94.70;;;;;;4067763;29;20049;-59
2023/08/16 09:57:44;;;;;;;6.18;2.22;;;24.50;94.40;;;;;;4067918;29;20072;-59
2023/08/16 09:59:48;;;;;;;4.50;1.90;;;24.60;94.40;;;;;;4068848;29;20487;-59
2023/08/16 10:01:50;;;;;;;10.85;2.30;;;24.60;94.10;;;;;;4068019;29;20052;-59
2023/08/16 10:03:55;;;;;;;8.32;2.15;;;24.70;94.20;;;;;;4068690;29;20500;-59
2023/08/16 10:06:00;;;;;;;5.05;1.77;;;24.80;94.00;;;;;;4067987;29;20403;-59
2023/08/16 10:08:05;;;;;;;6.60;1.63;;;24.90;94.00;;;;;;4068096;29;20466;-59
2023/08/16 10:10:13;;;;;;;4.35;1.98;;;24.90;93.80;;;;;;4068649;29;20075;-60
2023/08/16 10:12:17;;;;;;;6.03;1.80;;;24.90;93.40;;;;;;4067899;29;20060;-59
2023/08/16 10:14:19;;;;;;;4.70;1.70;;;24.90;93.30;;;;;;4068905;29;20252;-57
2023/08/16 10:16:24;;;;;;;5.03;2.00;;;25.00;93.40;;;;;;4070521;29;20083;-57
2023/08/16 10:18:27;;;;;;;;;;;25.00;93.30;;;;;;4069856;29;20043;-57
2023/08/16 10:20:32;;;;;;;4.82;1.90;;;25.00;93.50;;;;;;4067435;29;20009;-59
2023/08/16 10:22:38;;;;;;;4.95;1.90;;;25.10;93.30;;;;;;4068241;29;20159;-60
2023/08/16 10:24:42;;;;;;;6.32;2.00;;;25.20;93.40;;;;;;4068212;29;20047;-59
2023/08/16 10:26:49;;;;;;;4.57;1.73;;;25.20;93.20;;;;;;4068517;29;20111;-59
2023/08/16 10:28:57;;;;;;;6.63;2.33;;;25.20;93.40;;;;;;4068848;29;20051;-59
2023/08/16 10:31:01;;;;;;;8.43;1.98;;;25.40;93.20;;;;;;4067829;29;20451;-59
2023/08/16 10:33:09;;;;;;;7.15;2.03;;;25.30;93.20;;;;;;4068166;29;20413;-59
2023/08/16 10:35:12;;;;;;;9.88;2.10;;;25.50;93.20;;;;;;4068013;29;20056;-59
2023/08/16 10:37:15;;;;;;;9.48;1.98;;;25.50;93.10;;;;;;4068013;29;20055;-59
2023/08/16 10:39:21;;;;;;;4.97;1.98;;;25.60;93.30;;;;;;4068205;29;20095;-59